Time;durP1;ratioP1;P1;durP2;ratioP2;P2;SDS_P1;SDS_P2;PMS_P1;PMS_P2;Temp;Humidity;BMP_temperature;BMP_pressure;BME280_temperature;BME280_humidity;BME280_pressure;Samples;Min_cycle;Max_cycle;Signal;HPM_P1;HPM_P2
2022/09/17 00:01:16;;;;;;;1.63;0.47;;;;;;;11.89;92.41;99896.13;5034046;28;20233;-82
2022/09/17 00:03:44;;;;;;;2.50;0.83;;;;;;;11.89;92.58;99898.81;5034745;28;20207;-83
2022/09/17 00:06:12;;;;;;;2.70;0.57;;;;;;;11.89;92.77;99901.47;5034733;28;20215;-82
2022/09/17 00:08:40;;;;;;;1.83;0.50;;;;;;;11.88;93.18;99902.44;5032831;28;20215;-82
2022/09/17 00:11:08;;;;;;;0.93;0.43;;;;;;;11.86;93.27;99907.06;5038888;28;20238;-83
2022/09/17 00:13:36;;;;;;;4.30;1.00;;;;;;;11.88;93.13;99913.13;5034108;28;20198;-83
2022/09/17 00:16:03;;;;;;;2.03;0.60;;;;;;;11.86;93.54;99907.06;5036290;28;20207;-82
2022/09/17 00:18:29;;;;;;;1.30;0.53;;;;;;;11.86;93.74;99905.22;5033104;28;20559;-83
2022/09/17 00:20:56;;;;;;;4.83;0.93;;;;;;;11.86;93.99;99913.25;5033804;28;20211;-83
2022/09/17 00:23:22;;;;;;;6.70;1.20;;;;;;;11.88;93.85;99915.78;5033847;28;20211;-83
2022/09/17 00:25:49;;;;;;;4.37;1.37;;;;;;;11.87;93.93;99917.59;5033606;28;20236;-82
2022/09/17 00:28:15;;;;;;;5.47;1.50;;;;;;;11.87;94.19;99922.09;5033567;28;20207;-83
2022/09/17 00:30:45;;;;;;;9.50;1.87;;;;;;;11.86;94.46;99917.72;5032455;28;20239;-83
2022/09/17 00:33:12;;;;;;;8.17;1.40;;;;;;;11.86;94.12;99917.72;5031561;28;20258;-84
2022/09/17 00:35:39;;;;;;;4.70;1.70;;;;;;;11.86;94.20;99909.72;5033670;28;20209;-84
2022/09/17 00:38:05;;;;;;;8.93;2.17;;;;;;;11.86;94.36;99921.25;5033033;28;20220;-83
2022/09/17 00:40:32;;;;;;;5.20;1.57;;;;;;;11.82;94.21;99923.31;5032687;28;20675;-83
2022/09/17 00:42:58;;;;;;;8.10;2.10;;;;;;;11.81;94.48;99913.63;5030757;28;20726;-83
2022/09/17 00:45:27;;;;;;;4.90;1.60;;;;;;;11.82;94.43;99917.16;5036632;28;20684;-83
2022/09/17 00:47:59;;;;;;;7.57;2.27;;;;;;;11.80;94.58;99924.41;5032076;28;20202;-83
2022/09/17 00:50:29;;;;;;;8.63;1.90;;;;;;;11.81;94.39;99929.63;5032271;28;20231;-83
2022/09/17 00:52:59;;;;;;;6.07;2.00;;;;;;;11.81;94.66;99934.13;5033654;28;20237;-84
2022/09/17 00:55:29;;;;;;;7.17;1.90;;;;;;;11.80;94.57;99932.41;5024573;28;20218;-82
2022/09/17 00:57:58;;;;;;;8.13;1.33;;;;;;;11.79;94.39;99926.25;5039734;28;20215;-82
2022/09/17 01:00:26;;;;;;;11.10;2.20;;;;;;;11.78;94.26;99929.03;5032813;28;20620;-82
2022/09/17 01:02:54;;;;;;;7.87;2.20;;;;;;;11.78;94.25;99934.38;5031302;28;20226;-82
2022/09/17 01:05:31;;;;;;;8.27;2.17;;;;;;;11.77;94.34;99938.84;5032753;28;20208;-82
2022/09/17 01:08:15;;;;;;;8.43;1.20;;;;;;;11.78;94.07;99931.69;5033440;28;20218;-82
2022/09/17 01:10:55;;;;;;;7.37;1.60;;;;;;;11.77;93.99;99938.84;5027666;28;20853;-83
2022/09/17 01:13:34;;;;;;;9.47;2.47;;;;;;;11.77;93.94;99932.66;5040196;28;20200;-83
2022/09/17 01:16:09;;;;;;;9.10;1.77;;;;;;;11.77;93.64;99930.00;5037217;28;20210;-83
2022/09/17 01:18:51;;;;;;;9.23;2.03;;;;;;;11.77;93.60;99932.66;5034493;28;20207;-82
2022/09/17 01:21:36;;;;;;;10.17;1.87;;;;;;;11.76;93.64;99934.47;5033089;28;20223;-82
2022/09/17 01:24:40;;;;;;;5.93;1.50;;;;;;;11.74;93.50;99936.38;5033936;28;20257;-82
2022/09/17 01:27:46;;;;;;;6.33;1.63;;;;;;;11.76;93.36;99930.97;5031454;28;20207;-82
2022/09/17 01:30:21;;;;;;;9.20;1.90;;;;;;;11.75;93.24;99935.41;5036454;28;21842;-83
2022/09/17 01:32:57;;;;;;;12.97;1.97;;;;;;;11.73;92.98;99936.50;5036492;28;20225;-83
2022/09/17 01:35:34;;;;;;;7.53;1.87;;;;;;;11.70;93.04;99929.59;5029805;28;20200;-83
2022/09/17 01:38:05;;;;;;;6.73;2.13;;;;;;;11.69;92.78;99935.03;5034891;28;20347;-82
2022/09/17 01:40:38;;;;;;;6.67;1.63;;;;;;;11.66;92.62;99936.13;5039673;28;20216;-83
2022/09/17 01:43:09;;;;;;;7.57;1.50;;;;;;;11.65;92.71;99941.59;5039793;28;20586;-83
2022/09/17 01:45:40;;;;;;;8.17;1.77;;;;;;;11.64;92.50;99942.59;5034758;28;20713;-82
2022/09/17 01:48:13;;;;;;;11.17;2.13;;;;;;;11.62;92.46;99945.38;5035731;28;20207;-83
2022/09/17 01:50:45;;;;;;;7.73;1.90;;;;;;;11.61;92.36;99949.00;5035087;28;20239;-82
2022/09/17 01:53:15;;;;;;;7.57;1.77;;;;;;;11.62;92.47;99945.38;5035574;28;20245;-83
2022/09/17 01:55:45;;;;;;;6.80;1.27;;;;;;;11.62;92.16;99945.38;5036941;28;20237;-82
2022/09/17 01:58:16;;;;;;;6.83;1.37;;;;;;;11.63;91.93;99956.88;5034884;28;20210;-82
2022/09/17 02:00:48;;;;;;;9.93;1.83;;;;;;;11.63;91.89;99963.06;5032521;28;20689;-82
2022/09/17 02:03:20;;;;;;;9.63;1.70;;;;;;;11.62;91.78;99961.38;5032893;28;20765;-82
2022/09/17 02:05:53;;;;;;;9.67;1.70;;;;;;;11.64;91.77;99954.09;5032662;28;20194;-82
2022/09/17 02:08:23;;;;;;;4.63;1.47;;;;;;;11.61;91.60;99953.50;5032060;28;20206;-82
2022/09/17 02:10:55;;;;;;;6.37;1.90;;;;;;;11.60;91.81;99962.47;5033453;28;20234;-82
2022/09/17 02:13:28;;;;;;;10.47;2.27;;;;;;;11.58;91.10;99945.72;5031928;28;20203;-82
2022/09/17 02:15:59;;;;;;;9.43;2.30;;;;;;;11.56;90.93;99950.31;5033530;28;20689;-82
2022/09/17 02:18:34;;;;;;;9.20;2.20;;;;;;;11.54;90.97;99950.44;5036987;28;20202;-82
2022/09/17 02:21:07;;;;;;;7.77;1.63;;;;;;;11.54;90.66;99954.94;5029562;28;20199;-81
2022/09/17 02:23:43;;;;;;;6.97;1.77;;;;;;;11.53;90.74;99959.41;5031177;28;20264;-81
2022/09/17 02:26:12;;;;;;;9.70;1.97;;;;;;;11.54;90.05;99958.44;5033582;28;20658;-82
2022/09/17 02:28:45;;;;;;;5.33;1.40;;;;;;;11.53;90.20;99948.75;5032561;28;20268;-82
2022/09/17 02:31:12;;;;;;;9.43;1.80;;;;;;;11.54;90.32;99965.59;5032680;28;20230;-82
2022/09/17 02:33:42;;;;;;;6.57;1.73;;;;;;;11.54;90.16;99963.78;5039713;28;20210;-81
2022/09/17 02:36:09;;;;;;;8.83;1.70;;;;;;;11.52;89.98;99964.84;5032402;28;20575;-82
2022/09/17 02:38:38;;;;;;;9.03;2.03;;;;;;;11.52;89.85;99968.38;5031085;28;20197;-82
2022/09/17 02:41:13;;;;;;;5.93;1.20;;;;;;;11.53;89.59;99967.41;5031107;28;20198;-82
2022/09/17 02:43:50;;;;;;;11.73;1.80;;;;;;;11.48;89.38;99967.75;5025385;28;20244;-82
2022/09/17 02:46:37;;;;;;;13.40;2.40;;;;;;;11.51;89.30;99972.00;5031749;28;20204;-82
2022/09/17 02:49:24;;;;;;;15.43;2.43;;;;;;;11.51;89.20;99972.00;5030768;28;20214;-82
2022/09/17 02:51:58;;;;;;;8.77;1.83;;;;;;;11.54;88.92;99976.25;5031974;28;20226;-82
2022/09/17 02:54:29;;;;;;;10.77;2.47;;;;;;;11.52;88.60;99972.84;5040315;28;20202;-82
2022/09/17 02:57:08;;;;;;;16.87;2.27;;;;;;;11.51;88.78;99980.00;5029840;28;20490;-82
2022/09/17 02:59:42;;;;;;;8.63;1.60;;;;;;;11.52;88.37;99978.19;5027288;28;20368;-82
2022/09/17 03:02:17;;;;;;;9.97;1.90;;;;;;;11.52;88.39;99970.19;5029134;28;20235;-83
2022/09/17 03:04:48;;;;;;;15.57;2.40;;;;;;;11.53;88.15;99980.75;5030724;28;20234;-82
2022/09/17 03:07:16;;;;;;;13.50;2.67;;;;;;;11.54;88.14;99974.44;5031493;28;20208;-82
2022/09/17 03:09:43;;;;;;;8.30;1.93;;;;;;;11.54;87.97;99979.78;5030473;28;20207;-82
2022/09/17 03:12:10;;;;;;;7.87;1.97;;;;;;;11.57;87.87;99978.69;5031778;28;20269;-82
2022/09/17 03:14:36;;;;;;;6.00;1.93;;;;;;;11.57;87.74;99978.69;5031702;28;20212;-82
2022/09/17 03:17:03;;;;;;;13.87;2.63;;;;;;;11.57;87.48;99978.69;5031308;28;20212;-83
2022/09/17 03:19:30;;;;;;;14.83;2.57;;;;;;;11.51;87.17;99974.69;5031396;28;20634;-82
2022/09/17 03:21:58;;;;;;;9.87;2.37;;;;;;;11.49;87.00;99974.78;5030065;28;20231;-82
2022/09/17 03:24:24;;;;;;;12.00;2.30;;;;;;;11.49;86.82;99982.78;5029559;28;20233;-82
2022/09/17 03:26:51;;;;;;;9.50;1.93;;;;;;;11.47;86.74;99981.22;5029361;28;20571;-82
2022/09/17 03:29:17;;;;;;;9.90;2.50;;;;;;;11.44;86.47;99992.13;5027942;28;20303;-82
2022/09/17 03:31:44;;;;;;;13.40;2.07;;;;;;;11.43;86.40;99987.78;5034360;28;20231;-82
2022/09/17 03:34:10;;;;;;;8.90;2.17;;;;;;;11.43;86.30;99990.44;5032909;28;20216;-82
2022/09/17 03:36:37;;;;;;;10.67;2.20;;;;;;;11.40;86.17;99988.00;5029578;28;20223;-82
2022/09/17 03:39:05;;;;;;;9.77;2.17;;;;;;;11.39;86.06;99991.63;5028946;28;20219;-81
2022/09/17 03:41:31;;;;;;;9.80;1.83;;;;;;;11.36;86.02;100000.72;5027340;28;20699;-82
2022/09/17 03:43:58;;;;;;;11.17;2.57;;;;;;;11.34;85.90;99996.47;5029272;28;20575;-82
2022/09/17 03:46:24;;;;;;;11.27;2.80;;;;;;;11.33;85.56;99992.09;5029327;28;20670;-81
2022/09/17 03:48:51;;;;;;;9.73;2.43;;;;;;;11.30;85.91;100000.31;5037070;28;20586;-81
2022/09/17 03:51:17;;;;;;;8.63;2.13;;;;;;;11.29;85.84;100001.28;5028419;28;20233;-81
2022/09/17 03:53:44;;;;;;;12.30;1.70;;;;;;;11.25;85.95;99998.03;5029388;28;20670;-82
2022/09/17 03:56:12;;;;;;;15.90;2.93;;;;;;;11.23;85.83;99993.78;5028578;28;20204;-82
2022/09/17 03:58:38;;;;;;;12.97;2.03;;;;;;;11.20;85.75;100008.19;5028732;28;20208;-82
2022/09/17 04:01:05;;;;;;;8.07;1.93;;;;;;;11.18;85.96;100002.13;5030397;28;20228;-82
2022/09/17 04:03:32;;;;;;;9.97;1.83;;;;;;;11.14;85.86;100004.16;5030006;28;20203;-81
2022/09/17 04:05:58;;;;;;;9.87;2.20;;;;;;;11.11;85.90;100004.38;5030173;28;20688;-82
2022/09/17 04:08:25;;;;;;;8.60;1.60;;;;;;;11.10;85.89;100010.72;5029279;28;20212;-82
2022/09/17 04:10:51;;;;;;;12.10;2.53;;;;;;;11.07;85.76;100007.44;5029632;28;20253;-81
2022/09/17 04:13:20;;;;;;;11.57;1.87;;;;;;;11.05;85.90;100010.19;5026456;28;20524;-82
2022/09/17 04:15:47;;;;;;;11.17;1.97;;;;;;;11.04;85.75;100008.50;5028562;28;20234;-81
2022/09/17 04:18:14;;;;;;;10.07;2.20;;;;;;;11.04;85.52;100010.31;5028918;28;20210;-82
2022/09/17 04:20:41;;;;;;;9.90;2.00;;;;;;;11.03;85.60;100011.28;5026053;28;20239;-81
2022/09/17 04:23:10;;;;;;;9.00;2.27;;;;;;;11.01;85.31;100022.06;5028964;28;20280;-82
2022/09/17 04:25:37;;;;;;;9.37;2.17;;;;;;;11.00;85.38;100012.34;5028020;28;20221;-81
2022/09/17 04:28:04;;;;;;;9.60;2.10;;;;;;;11.00;85.17;100022.16;5028539;28;20213;-82
2022/09/17 04:30:32;;;;;;;11.10;2.70;;;;;;;10.96;85.02;100018.88;5028432;28;20217;-83
2022/09/17 04:32:58;;;;;;;14.93;1.97;;;;;;;10.94;84.93;100028.78;5027304;28;20238;-83
2022/09/17 04:35:25;;;;;;;10.00;2.07;;;;;;;10.91;84.60;100020.19;5028988;28;20214;-81
2022/09/17 04:37:55;;;;;;;7.37;1.73;;;;;;;10.91;84.57;100028.19;5028453;28;20216;-82
2022/09/17 04:40:22;;;;;;;12.30;3.10;;;;;;;10.87;84.39;100026.72;5030633;28;20209;-82
2022/09/17 04:42:52;;;;;;;9.57;2.67;;;;;;;10.88;84.26;100017.75;5027024;28;20226;-82
2022/09/17 04:45:18;;;;;;;10.07;2.20;;;;;;;10.88;84.21;100031.09;5028044;28;20213;-82
2022/09/17 04:47:46;;;;;;;11.27;2.03;;;;;;;10.89;84.40;100030.13;5029082;28;20207;-82
2022/09/17 04:50:13;;;;;;;7.90;2.07;;;;;;;10.91;84.19;100045.03;5028414;28;20297;-83
2022/09/17 04:52:42;;;;;;;6.80;1.60;;;;;;;10.91;84.20;100037.03;5027626;28;20235;-82
2022/09/17 04:55:09;;;;;;;9.07;1.87;;;;;;;10.91;84.25;100038.84;5029372;28;20212;-82
2022/09/17 04:57:35;;;;;;;8.23;2.13;;;;;;;10.90;84.33;100039.81;5029215;28;20214;-82
2022/09/17 05:00:02;;;;;;;10.80;1.77;;;;;;;10.91;84.58;100039.69;5034366;28;20218;-82
2022/09/17 05:02:28;;;;;;;8.53;2.30;;;;;;;10.92;84.38;100041.41;5035023;28;20316;-81
2022/09/17 05:04:57;;;;;;;15.13;2.40;;;;;;;10.93;84.64;100044.88;5035258;28;20212;-82
2022/09/17 05:07:23;;;;;;;10.23;2.53;;;;;;;10.92;84.77;100054.72;5034160;28;20237;-82
2022/09/17 05:09:50;;;;;;;9.53;2.43;;;;;;;10.93;84.74;100053.72;5034536;28;20207;-82
2022/09/17 05:12:16;;;;;;;10.27;2.13;;;;;;;10.94;84.81;100050.09;5034304;28;20870;-82
2022/09/17 05:14:42;;;;;;;13.77;3.10;;;;;;;10.94;84.84;100055.44;5034992;28;20212;-82
2022/09/17 05:17:09;;;;;;;15.43;2.70;;;;;;;10.94;84.71;100066.09;5034173;28;20218;-82
2022/09/17 05:19:35;;;;;;;14.27;2.77;;;;;;;10.95;84.98;100065.13;5035245;28;20225;-82
2022/09/17 05:22:03;;;;;;;12.77;2.07;;;;;;;10.96;85.05;100064.16;5034621;28;20625;-82
2022/09/17 05:24:30;;;;;;;14.47;3.07;;;;;;;10.96;85.02;100074.81;5035088;28;20227;-83
2022/09/17 05:26:56;;;;;;;12.43;2.30;;;;;;;10.98;84.72;100067.56;5037419;28;20281;-82
2022/09/17 05:29:23;;;;;;;16.63;2.53;;;;;;;10.99;84.81;100069.28;5045188;28;20213;-82
2022/09/17 05:31:49;;;;;;;14.20;2.33;;;;;;;11.00;84.88;100080.78;5037106;28;20240;-82
2022/09/17 05:34:15;;;;;;;11.17;2.43;;;;;;;10.99;84.85;100066.59;5035283;28;20628;-82
2022/09/17 05:36:42;;;;;;;12.17;2.30;;;;;;;11.01;84.79;100071.81;5035050;28;20654;-82
2022/09/17 05:39:10;;;;;;;8.27;2.27;;;;;;;11.02;84.70;100073.53;5035147;28;20587;-82
2022/09/17 05:41:36;;;;;;;9.97;2.30;;;;;;;11.01;84.60;100072.69;5035078;28;20223;-82
2022/09/17 05:44:03;;;;;;;12.97;2.00;;;;;;;11.00;84.47;100084.31;5035159;28;20206;-82
2022/09/17 05:46:29;;;;;;;15.07;1.93;;;;;;;11.01;84.32;100086.00;5029106;28;20203;-82
2022/09/17 05:48:56;;;;;;;8.87;2.37;;;;;;;11.01;84.03;100088.66;5033393;28;20212;-82
2022/09/17 05:51:23;;;;;;;10.43;1.70;;;;;;;11.02;83.98;100094.84;5031868;28;20237;-82
2022/09/17 05:53:49;;;;;;;9.33;1.70;;;;;;;11.04;83.93;100091.09;5034144;28;20396;-83
2022/09/17 05:56:18;;;;;;;10.50;2.00;;;;;;;11.03;83.47;100091.22;5036392;28;20202;-83
2022/09/17 05:58:44;;;;;;;11.00;2.30;;;;;;;11.01;83.06;100094.00;5034681;28;20263;-82
2022/09/17 06:01:14;;;;;;;8.77;2.00;;;;;;;11.03;82.92;100092.06;5038049;28;20215;-82
2022/09/17 06:03:41;;;;;;;14.60;2.10;;;;;;;11.01;82.58;100099.31;5035028;28;20214;-83
2022/09/17 06:06:08;;;;;;;5.87;1.70;;;;;;;11.01;82.24;100096.66;5034857;28;20218;-82
2022/09/17 06:08:35;;;;;;;10.40;2.00;;;;;;;11.04;82.04;100098.25;5030215;28;20214;-83
2022/09/17 06:11:04;;;;;;;9.53;1.80;;;;;;;11.05;81.75;100095.47;5030316;28;20293;-82
2022/09/17 06:13:32;;;;;;;8.37;2.03;;;;;;;11.11;81.55;100099.47;5027051;28;20610;-82
2022/09/17 06:15:59;;;;;;;10.30;2.10;;;;;;;11.14;81.72;100104.59;5030378;28;20217;-82
2022/09/17 06:18:27;;;;;;;9.40;2.00;;;;;;;11.18;81.30;100106.06;5031153;28;20210;-82
2022/09/17 06:20:54;;;;;;;7.90;1.60;;;;;;;11.19;81.22;100099.78;5031911;28;20216;-83
2022/09/17 06:23:21;;;;;;;14.33;2.33;;;;;;;11.23;81.13;100109.25;5030526;28;20234;-82
2022/09/17 06:25:51;;;;;;;11.00;1.67;;;;;;;11.25;81.11;100102.00;5029730;28;20214;-82
2022/09/17 06:28:18;;;;;;;13.70;2.83;;;;;;;11.27;81.02;100101.88;5031046;28;20211;-82
2022/09/17 06:30:46;;;;;;;6.73;1.80;;;;;;;11.27;80.92;100104.53;5031419;28;20229;-83
2022/09/17 06:33:12;;;;;;;7.47;2.03;;;;;;;11.27;80.64;100112.53;5031215;28;20230;-82
2022/09/17 06:35:39;;;;;;;10.80;1.70;;;;;;;11.25;80.48;100117.13;5028591;28;20210;-82
2022/09/17 06:38:06;;;;;;;8.53;2.30;;;;;;;11.26;80.39;100114.34;5032688;28;20219;-82
2022/09/17 06:40:33;;;;;;;9.97;2.37;;;;;;;11.26;80.28;100108.19;5032243;28;20558;-82
2022/09/17 06:43:00;;;;;;;8.10;1.97;;;;;;;11.25;80.17;100098.47;5030202;28;20596;-82
2022/09/17 06:45:27;;;;;;;8.97;2.10;;;;;;;11.23;79.95;100119.91;5029015;28;20215;-82
2022/09/17 06:47:55;;;;;;;11.03;2.50;;;;;;;11.25;79.63;100125.13;5029812;28;20297;-82
2022/09/17 06:50:21;;;;;;;10.20;2.20;;;;;;;11.25;79.57;100123.31;5029121;28;20404;-81
2022/09/17 06:52:49;;;;;;;7.03;2.50;;;;;;;11.29;79.43;100111.44;5029022;28;20224;-83
2022/09/17 06:55:15;;;;;;;9.70;1.70;;;;;;;11.34;79.47;100116.44;5028580;28;20213;-82
2022/09/17 06:57:42;;;;;;;5.90;1.37;;;;;;;11.39;79.20;100119.63;5028458;28;20206;-82
2022/09/17 07:00:10;;;;;;;8.77;1.70;;;;;;;11.44;79.29;100118.31;5030738;28;20208;-82
2022/09/17 07:02:37;;;;;;;10.07;2.27;;;;;;;11.47;78.75;100118.06;5028695;28;20310;-82
2022/09/17 07:05:06;;;;;;;11.00;2.00;;;;;;;11.52;78.43;100117.72;5029835;28;20212;-82
2022/09/17 07:07:34;;;;;;;10.80;2.13;;;;;;;11.56;78.10;100116.53;5028913;28;20227;-82
2022/09/17 07:10:01;;;;;;;8.80;2.10;;;;;;;11.62;78.01;100118.72;5030198;28;20202;-82
2022/09/17 07:12:27;;;;;;;9.93;1.83;;;;;;;11.70;77.94;100121.66;5029074;28;20229;-82
2022/09/17 07:14:53;;;;;;;9.03;1.77;;;;;;;11.77;77.59;100116.75;5029604;28;20208;-82
2022/09/17 07:17:20;;;;;;;9.90;1.80;;;;;;;11.84;77.34;100120.63;5028907;28;20663;-82
2022/09/17 07:19:46;;;;;;;11.57;2.13;;;;;;;11.89;77.16;100117.59;5029712;28;20679;-82
2022/09/17 07:22:15;;;;;;;8.07;1.70;;;;;;;11.95;77.05;100115.31;5028630;28;20219;-82
2022/09/17 07:24:41;;;;;;;15.77;2.47;;;;;;;12.00;77.21;100114.97;5032210;28;20245;-82
2022/09/17 07:27:08;;;;;;;6.13;2.20;;;;;;;12.06;77.03;100114.47;5030862;28;20237;-82
2022/09/17 07:29:34;;;;;;;8.43;2.30;;;;;;;12.14;77.08;100123.59;5029092;28;20683;-83
2022/09/17 07:32:01;;;;;;;12.23;2.30;;;;;;;12.24;77.18;100121.03;5030867;28;20603;-82
2022/09/17 07:34:27;;;;;;;12.10;2.37;;;;;;;12.34;76.96;100115.84;5033068;28;20210;-82
2022/09/17 07:36:54;;;;;;;6.47;1.70;;;;;;;12.42;76.84;100110.72;5029791;28;20220;-84
2022/09/17 07:39:22;;;;;;;10.60;2.13;;;;;;;12.48;76.63;100126.28;5033389;28;20214;-82
2022/09/17 07:41:48;;;;;;;10.77;2.40;;;;;;;12.54;76.29;100124.94;5027826;28;20222;-82
2022/09/17 07:44:15;;;;;;;7.70;2.33;;;;;;;12.61;76.04;100120.78;5028063;28;20202;-82
2022/09/17 07:46:41;;;;;;;9.87;2.00;;;;;;;12.69;75.32;100118.38;5029281;28;20205;-83
2022/09/17 07:49:07;;;;;;;11.57;1.80;;;;;;;12.77;74.57;100113.25;5028418;28;20596;-82
2022/09/17 07:51:34;;;;;;;7.50;1.80;;;;;;;12.83;73.07;100112.75;5031753;28;20224;-83
2022/09/17 07:54:01;;;;;;;7.03;1.60;;;;;;;12.91;72.02;100117.47;5028655;28;20233;-83
2022/09/17 07:56:28;;;;;;;9.10;2.63;;;;;;;13.01;71.53;100113.94;5026169;28;20209;-82
2022/09/17 07:58:55;;;;;;;10.87;1.80;;;;;;;13.12;71.00;100121.06;5027442;28;20641;-83
2022/09/17 08:01:22;;;;;;;9.00;1.90;;;;;;;13.20;70.43;100115.97;5028915;28;20224;-83
2022/09/17 08:03:50;;;;;;;7.10;1.90;;;;;;;13.31;69.57;100121.28;5022851;28;20199;-82
2022/09/17 08:06:19;;;;;;;9.47;2.10;;;;;;;13.38;67.84;100109.09;5028124;28;20206;-83
2022/09/17 08:08:46;;;;;;;12.97;1.87;;;;;;;13.45;67.12;100112.94;5027988;28;20229;-82
2022/09/17 08:11:15;;;;;;;9.07;1.70;;;;;;;13.53;66.89;100112.31;5030343;28;20210;-82
2022/09/17 08:13:43;;;;;;;8.60;1.47;;;;;;;13.61;66.06;100114.34;5028452;28;20222;-83
2022/09/17 08:16:12;;;;;;;6.87;1.60;;;;;;;13.70;66.44;100102.84;5029082;28;20214;-82
2022/09/17 08:18:38;;;;;;;11.47;1.93;;;;;;;13.80;66.16;100103.75;5030430;28;20213;-82
2022/09/17 08:21:06;;;;;;;9.70;2.47;;;;;;;13.92;65.85;100099.19;5029946;28;20198;-83
2022/09/17 08:23:35;;;;;;;6.57;1.60;;;;;;;14.05;65.79;100102.50;5030636;28;20210;-83
2022/09/17 08:26:02;;;;;;;8.60;2.17;;;;;;;14.09;64.68;100099.44;5030049;28;20201;-83
2022/09/17 08:28:31;;;;;;;10.10;1.83;;;;;;;14.19;64.58;100094.13;5031991;28;20202;-82
2022/09/17 08:31:03;;;;;;;6.47;1.63;;;;;;;14.28;63.82;100090.66;5030399;28;20202;-83
2022/09/17 08:33:31;;;;;;;13.23;1.97;;;;;;;14.36;63.99;100098.84;5028031;28;20225;-83
2022/09/17 08:35:58;;;;;;;5.83;1.60;;;;;;;14.42;63.07;100101.03;5029306;28;20234;-83
2022/09/17 08:38:25;;;;;;;7.67;1.77;;;;;;;14.50;62.05;100100.38;5029502;28;20218;-83
2022/09/17 08:41:04;;;;;;;9.57;2.00;;;;;;;14.58;61.90;100097.84;5030097;28;20656;-83
2022/09/17 08:43:33;;;;;;;6.83;1.40;;;;;;;14.62;61.54;100104.63;5030294;28;20200;-83
2022/09/17 08:46:01;;;;;;;8.17;1.60;;;;;;;14.58;60.13;100098.69;5030230;28;20206;-82
2022/09/17 08:48:36;;;;;;;10.20;1.83;;;;;;;14.56;60.09;100100.66;5030111;28;20577;-83
2022/09/17 08:51:14;;;;;;;8.97;1.90;;;;;;;14.57;59.61;100101.50;5027414;28;20208;-82
2022/09/17 08:53:53;;;;;;;10.83;1.60;;;;;;;14.56;59.88;100103.34;5024065;28;20209;-83
2022/09/17 08:56:21;;;;;;;12.43;2.20;;;;;;;14.54;59.21;100115.16;5026812;28;20206;-82
2022/09/17 08:58:59;;;;;;;6.67;1.20;;;;;;;14.51;59.53;100112.78;5029750;28;20206;-83
2022/09/17 09:01:37;;;;;;;7.63;1.87;;;;;;;14.55;59.50;100107.00;5030757;28;20226;-83
2022/09/17 09:04:33;;;;;;;6.17;1.67;;;;;;;14.62;59.49;100103.78;5030210;28;20214;-83
2022/09/17 09:07:04;;;;;;;8.03;1.57;;;;;;;14.66;59.09;100102.53;5024047;28;20201;-83
2022/09/17 09:09:36;;;;;;;7.73;1.70;;;;;;;14.68;58.57;100103.25;5028800;28;20395;-83
2022/09/17 09:12:07;;;;;;;6.97;1.77;;;;;;;14.66;57.97;100099.84;5042037;28;20236;-82
2022/09/17 09:14:40;;;;;;;8.57;1.50;;;;;;;14.64;58.44;100096.47;5024260;28;20207;-82
2022/09/17 09:17:10;;;;;;;5.90;1.77;;;;;;;14.67;58.41;100101.56;5028577;28;20190;-83
2022/09/17 09:19:42;;;;;;;7.80;2.47;;;;;;;14.69;57.83;100107.63;5029401;28;20570;-82
2022/09/17 09:22:22;;;;;;;7.33;1.50;;;;;;;14.64;57.77;100091.94;5032971;28;20291;-83
2022/09/17 09:25:00;;;;;;;7.30;1.70;;;;;;;14.63;57.16;100105.47;5039717;28;20210;-84
2022/09/17 09:27:28;;;;;;;10.50;1.60;;;;;;;14.63;56.79;100100.13;5038350;28;20214;-82
2022/09/17 09:30:03;;;;;;;10.20;2.33;;;;;;;14.70;57.18;100101.25;5031291;28;20202;-83
2022/09/17 09:32:51;;;;;;;6.20;1.77;;;;;;;14.73;56.88;100090.25;5029664;28;20562;-83
2022/09/17 09:35:20;;;;;;;7.60;1.93;;;;;;;14.75;57.00;100089.16;5029053;28;20233;-83
2022/09/17 09:37:54;;;;;;;13.67;2.13;;;;;;;14.79;56.87;100090.56;5029483;28;20835;-83
2022/09/17 09:40:31;;;;;;;7.83;2.10;;;;;;;14.86;56.81;100090.88;5029829;28;20198;-83
2022/09/17 09:43:01;;;;;;;10.73;1.93;;;;;;;14.85;55.98;100086.50;5032890;28;20233;-83
2022/09/17 09:45:45;;;;;;;6.87;1.50;;;;;;;14.83;56.08;100091.16;5042617;28;20202;-83
2022/09/17 09:48:25;;;;;;;10.03;1.40;;;;;;;14.85;56.42;100083.81;5021760;28;20195;-82
2022/09/17 09:51:08;;;;;;;10.87;1.93;;;;;;;14.84;55.96;100093.69;5035260;28;20199;-82
2022/09/17 09:53:46;;;;;;;6.13;1.20;;;;;;;14.91;56.45;100096.66;5037754;28;20657;-81
2022/09/17 09:56:32;;;;;;;6.93;1.63;;;;;;;14.96;56.08;100094.41;5042285;28;20205;-82
2022/09/17 09:59:00;;;;;;;7.90;2.03;;;;;;;14.98;55.16;100097.81;5037748;28;20213;-81
2022/09/17 10:01:28;;;;;;;6.43;1.43;;;;;;;14.97;54.59;100095.25;5029296;28;20236;-82
2022/09/17 10:03:57;;;;;;;7.27;1.90;;;;;;;14.96;54.82;100085.53;5031770;28;20206;-82
2022/09/17 10:06:25;;;;;;;4.63;1.27;;;;;;;14.91;53.75;100097.50;5041382;28;20728;-83
2022/09/17 10:09:11;;;;;;;8.43;1.77;;;;;;;14.89;53.47;100102.16;5038500;28;20202;-83
2022/09/17 10:11:38;;;;;;;5.17;1.33;;;;;;;14.96;53.20;100096.25;5031698;28;20299;-82
2022/09/17 10:14:16;;;;;;;6.10;1.30;;;;;;;14.99;52.62;100091.47;5032756;28;20234;-83
2022/09/17 10:16:42;;;;;;;7.43;1.80;;;;;;;14.97;51.82;100098.78;5032246;28;20249;-82
2022/09/17 10:19:18;;;;;;;6.63;1.40;;;;;;;14.99;52.03;100099.50;5033503;28;20206;-82
2022/09/17 10:21:45;;;;;;;8.10;1.27;;;;;;;15.06;51.25;100099.78;5031545;28;20244;-83
2022/09/17 10:24:23;;;;;;;5.33;1.20;;;;;;;15.16;50.80;100104.19;5034269;28;20205;-83
2022/09/17 10:26:51;;;;;;;7.57;1.97;;;;;;;15.18;49.43;100107.59;5030338;28;20206;-82
2022/09/17 10:29:20;;;;;;;8.17;1.50;;;;;;;15.17;48.67;100105.88;5030758;28;20199;-82
2022/09/17 10:31:48;;;;;;;5.83;2.10;;;;;;;15.15;48.08;100107.84;5030158;28;20743;-82
2022/09/17 10:34:22;;;;;;;5.90;1.50;;;;;;;15.11;48.17;100101.06;5032875;28;20265;-83
2022/09/17 10:36:49;;;;;;;4.57;1.13;;;;;;;15.17;48.61;100111.25;5020371;28;20209;-82
2022/09/17 10:39:35;;;;;;;6.67;1.20;;;;;;;15.24;48.96;100095.41;5029210;28;20206;-82
2022/09/17 10:42:03;;;;;;;5.80;1.20;;;;;;;15.36;48.79;100099.69;5031767;28;20305;-82
2022/09/17 10:44:31;;;;;;;9.20;1.53;;;;;;;15.41;48.38;100104.59;5032157;28;20198;-83
2022/09/17 10:47:04;;;;;;;5.27;1.47;;;;;;;15.44;48.32;100091.75;5031807;28;20590;-83
2022/09/17 10:49:39;;;;;;;6.50;1.50;;;;;;;15.45;48.37;100096.13;5036454;28;20206;-82
2022/09/17 10:52:11;;;;;;;6.77;1.63;;;;;;;15.45;48.54;100100.66;5032239;28;20230;-82
2022/09/17 10:55:25;;;;;;;7.27;1.33;;;;;;;15.44;48.86;100089.06;5031697;28;20222;-84
2022/09/17 10:58:08;;;;;;;6.63;1.23;;;;;;;15.46;49.00;100084.41;5031755;28;20202;-82
2022/09/17 11:00:44;;;;;;;8.20;1.63;;;;;;;15.50;49.41;100079.63;5032620;28;20282;-84
2022/09/17 11:03:35;;;;;;;9.33;1.57;;;;;;;15.56;49.64;100077.25;5032855;28;20225;-84
2022/09/17 11:06:27;;;;;;;5.33;1.20;;;;;;;15.67;49.18;100070.03;5032543;28;20539;-84
2022/09/17 11:09:04;;;;;;;7.27;1.37;;;;;;;15.73;48.84;100075.69;5029861;28;20213;-83
2022/09/17 11:11:46;;;;;;;4.20;1.27;;;;;;;15.75;47.94;100067.47;5012164;28;20218;-85
2022/09/17 11:14:34;;;;;;;5.07;1.13;;;;;;;15.76;46.15;100063.81;5012798;28;20239;-83
2022/09/17 11:17:08;;;;;;;6.27;1.07;;;;;;;15.78;45.48;100067.16;5012636;28;20452;-83
2022/09/17 11:19:45;;;;;;;5.03;0.77;;;;;;;15.86;46.25;100059.25;5012352;28;20196;-83
2022/09/17 11:22:23;;;;;;;4.20;1.00;;;;;;;15.89;45.06;100050.91;5012068;28;20231;-83
2022/09/17 11:25:01;;;;;;;7.00;1.33;;;;;;;15.92;45.38;100058.69;5012269;28;20211;-84
2022/09/17 11:27:45;;;;;;;6.33;1.47;;;;;;;15.92;44.97;100054.16;5012418;28;20197;-83
2022/09/17 11:30:16;;;;;;;8.10;1.37;;;;;;;15.98;45.69;100058.06;5012605;28;20625;-83
2022/09/17 11:33:09;;;;;;;4.57;1.10;;;;;;;16.00;45.32;100056.09;5012797;28;20236;-83
2022/09/17 11:35:38;;;;;;;4.50;1.03;;;;;;;16.02;45.08;100053.25;5016894;28;20200;-82
2022/09/17 11:38:10;;;;;;;7.33;1.10;;;;;;;16.02;45.46;100047.88;5016827;28;20209;-83
2022/09/17 11:40:41;;;;;;;4.10;1.20;;;;;;;16.06;45.39;100054.66;5015357;28;20566;-84